sensor_id;sensor_type;location;lat;lon;timestamp;pressure;altitude;pressure_sealevel;temperature;humidity
21838;BME280;11081;45.946;6.140;2023-05-10T00:02:17;95059.38;;;14.37;98.56
21838;BME280;11081;45.946;6.140;2023-05-10T00:04:45;95064.03;;;14.35;98.75
21838;BME280;11081;45.946;6.140;2023-05-10T00:07:13;95060.34;;;14.31;98.05
21838;BME280;11081;45.946;6.140;2023-05-10T00:09:43;95071.31;;;14.28;97.94
21838;BME280;11081;45.946;6.140;2023-05-10T00:12:12;95073.34;;;14.21;98.18
21838;BME280;11081;45.946;6.140;2023-05-10T00:14:40;95074.25;;;14.10;97.24
21838;BME280;11081;45.946;6.140;2023-05-10T00:17:09;95066.19;;;13.94;98.08
21838;BME280;11081;45.946;6.140;2023-05-10T00:19:37;95077.31;;;14.01;97.88
21838;BME280;11081;45.946;6.140;2023-05-10T00:22:05;95080.00;;;14.07;97.72
21838;BME280;11081;45.946;6.140;2023-05-10T00:24:33;95077.38;;;14.07;97.52
21838;BME280;11081;45.946;6.140;2023-05-10T00:27:01;95079.25;;;13.89;98.03
21838;BME280;11081;45.946;6.140;2023-05-10T00:29:30;95084.88;;;13.76;99.12
21838;BME280;11081;45.946;6.140;2023-05-10T00:32:00;95073.44;;;13.87;99.23
21838;BME280;11081;45.946;6.140;2023-05-10T00:34:29;95067.63;;;14.02;98.55
21838;BME280;11081;45.946;6.140;2023-05-10T00:36:57;95072.66;;;14.09;98.53
21838;BME280;11081;45.946;6.140;2023-05-10T00:39:26;95065.88;;;14.13;98.35
21838;BME280;11081;45.946;6.140;2023-05-10T00:41:55;95063.34;;;14.18;98.50
21838;BME280;11081;45.946;6.140;2023-05-10T00:44:23;95068.59;;;14.18;98.22
21838;BME280;11081;45.946;6.140;2023-05-10T00:46:52;95053.66;;;14.18;98.70
21838;BME280;11081;45.946;6.140;2023-05-10T00:49:20;95056.03;;;14.20;98.70
21838;BME280;11081;45.946;6.140;2023-05-10T00:51:50;95059.69;;;14.19;98.30
21838;BME280;11081;45.946;6.140;2023-05-10T00:54:19;95055.47;;;14.18;98.51
21838;BME280;11081;45.946;6.140;2023-05-10T00:56:47;95042.91;;;14.20;98.63
21838;BME280;11081;45.946;6.140;2023-05-10T00:59:16;95051.81;;;14.19;98.61
21838;BME280;11081;45.946;6.140;2023-05-10T01:01:44;95046.56;;;14.19;98.68
21838;BME280;11081;45.946;6.140;2023-05-10T01:04:13;95054.97;;;14.21;98.31
21838;BME280;11081;45.946;6.140;2023-05-10T01:06:42;95055.16;;;14.14;99.04
21838;BME280;11081;45.946;6.140;2023-05-10T01:09:12;95052.22;;;14.11;99.22
21838;BME280;11081;45.946;6.140;2023-05-10T01:11:40;95052.78;;;14.13;99.03
21838;BME280;11081;45.946;6.140;2023-05-10T01:14:08;95049.09;;;14.14;99.01
21838;BME280;11081;45.946;6.140;2023-05-10T01:16:38;95052.78;;;14.13;98.33
21838;BME280;11081;45.946;6.140;2023-05-10T01:19:12;95046.44;;;14.09;97.42
21838;BME280;11081;45.946;6.140;2023-05-10T01:21:49;95053.16;;;13.99;97.41
21838;BME280;11081;45.946;6.140;2023-05-10T01:27:55;95062.47;;;13.90;97.50
21838;BME280;11081;45.946;6.140;2023-05-10T01:31:03;95056.91;;;13.65;96.00
21838;BME280;11081;45.946;6.140;2023-05-10T01:33:39;95062.81;;;13.38;98.38
21838;BME280;11081;45.946;6.140;2023-05-10T01:36:16;95062.94;;;13.49;99.09
21838;BME280;11081;45.946;6.140;2023-05-10T01:38:57;95058.34;;;13.56;98.98
21838;BME280;11081;45.946;6.140;2023-05-10T01:41:32;95052.19;;;13.67;98.33
21838;BME280;11081;45.946;6.140;2023-05-10T01:44:09;95049.22;;;13.80;98.28
21838;BME280;11081;45.946;6.140;2023-05-10T01:46:40;95051.91;;;13.85;98.07
21838;BME280;11081;45.946;6.140;2023-05-10T01:49:16;95057.16;;;13.85;97.92
21838;BME280;11081;45.946;6.140;2023-05-10T01:51:49;95059.25;;;13.83;98.02
21838;BME280;11081;45.946;6.140;2023-05-10T01:54:21;95068.97;;;13.66;97.94
21838;BME280;11081;45.946;6.140;2023-05-10T01:56:55;95061.84;;;13.61;98.04
21838;BME280;11081;45.946;6.140;2023-05-10T01:59:28;95065.84;;;13.69;98.62
21838;BME280;11081;45.946;6.140;2023-05-10T02:01:58;95058.63;;;13.76;98.51
21838;BME280;11081;45.946;6.140;2023-05-10T02:04:29;95055.09;;;13.87;97.61
21838;BME280;11081;45.946;6.140;2023-05-10T02:06:57;95057.72;;;13.87;98.12
21838;BME280;11081;45.946;6.140;2023-05-10T02:09:26;95056.69;;;13.88;97.57
21838;BME280;11081;45.946;6.140;2023-05-10T02:11:58;95068.47;;;13.69;98.47
21838;BME280;11081;45.946;6.140;2023-05-10T02:14:28;95081.91;;;13.34;100.00
21838;BME280;11081;45.946;6.140;2023-05-10T02:16:59;95078.84;;;13.25;100.00
21838;BME280;11081;45.946;6.140;2023-05-10T02:19:31;95076.16;;;13.20;100.00
21838;BME280;11081;45.946;6.140;2023-05-10T02:22:00;95081.41;;;13.20;100.00
21838;BME280;11081;45.946;6.140;2023-05-10T02:24:32;95082.34;;;13.14;100.00
21838;BME280;11081;45.946;6.140;2023-05-10T02:27:02;95072.34;;;13.28;100.00
21838;BME280;11081;45.946;6.140;2023-05-10T02:29:31;95081.00;;;13.28;99.93
21838;BME280;11081;45.946;6.140;2023-05-10T02:32:00;95072.50;;;13.21;100.00
21838;BME280;11081;45.946;6.140;2023-05-10T02:34:31;95078.84;;;13.25;99.25
21838;BME280;11081;45.946;6.140;2023-05-10T02:37:00;95073.00;;;13.18;98.17
21838;BME280;11081;45.946;6.140;2023-05-10T02:39:32;95077.75;;;13.21;97.31
21838;BME280;11081;45.946;6.140;2023-05-10T02:42:01;95081.56;;;13.30;96.40
21838;BME280;11081;45.946;6.140;2023-05-10T02:44:30;95080.06;;;13.34;95.89
21838;BME280;11081;45.946;6.140;2023-05-10T02:46:59;95089.59;;;13.40;95.20
21838;BME280;11081;45.946;6.140;2023-05-10T02:49:28;95083.78;;;13.38;95.74
21838;BME280;11081;45.946;6.140;2023-05-10T02:52:00;95083.78;;;13.38;96.13
21838;BME280;11081;45.946;6.140;2023-05-10T02:54:31;95082.81;;;13.45;96.74
21838;BME280;11081;45.946;6.140;2023-05-10T02:57:03;95084.91;;;13.42;97.11
21838;BME280;11081;45.946;6.140;2023-05-10T02:59:32;95086.34;;;13.33;97.44
21838;BME280;11081;45.946;6.140;2023-05-10T03:02:00;95085.31;;;13.34;97.51
21838;BME280;11081;45.946;6.140;2023-05-10T03:04:28;95091.59;;;13.33;97.79
21838;BME280;11081;45.946;6.140;2023-05-10T03:06:59;95090.78;;;13.33;98.10
21838;BME280;11081;45.946;6.140;2023-05-10T03:09:27;95085.50;;;13.16;98.66
21838;BME280;11081;45.946;6.140;2023-05-10T03:12:00;95079.53;;;13.04;98.98
21838;BME280;11081;45.946;6.140;2023-05-10T03:14:42;95081.09;;;12.88;98.93
21838;BME280;11081;45.946;6.140;2023-05-10T03:17:18;95080.88;;;12.90;99.37
21838;BME280;11081;45.946;6.140;2023-05-10T03:19:53;95087.69;;;12.91;99.79
21838;BME280;11081;45.946;6.140;2023-05-10T03:22:26;95081.03;;;12.83;100.00
21838;BME280;11081;45.946;6.140;2023-05-10T03:25:00;95085.47;;;12.82;100.00
21838;BME280;11081;45.946;6.140;2023-05-10T03:27:30;95079.59;;;12.75;100.00
21838;BME280;11081;45.946;6.140;2023-05-10T03:29:59;95072.94;;;12.85;100.00
21838;BME280;11081;45.946;6.140;2023-05-10T03:32:32;95077.22;;;12.91;100.00
21838;BME280;11081;45.946;6.140;2023-05-10T03:35:06;95078.81;;;12.92;100.00
21838;BME280;11081;45.946;6.140;2023-05-10T03:37:36;95070.09;;;13.03;100.00
21838;BME280;11081;45.946;6.140;2023-05-10T03:40:06;95068.03;;;13.05;100.00
21838;BME280;11081;45.946;6.140;2023-05-10T03:42:36;95060.25;;;13.10;100.00
21838;BME280;11081;45.946;6.140;2023-05-10T03:45:06;95060.25;;;13.10;100.00
21838;BME280;11081;45.946;6.140;2023-05-10T03:47:34;95061.19;;;13.04;100.00
21838;BME280;11081;45.946;6.140;2023-05-10T03:50:03;95061.19;;;13.04;100.00
21838;BME280;11081;45.946;6.140;2023-05-10T03:52:32;95074.03;;;12.89;100.00
21838;BME280;11081;45.946;6.140;2023-05-10T03:55:02;95071.19;;;12.73;100.00
21838;BME280;11081;45.946;6.140;2023-05-10T03:57:30;95075.19;;;12.64;100.00
21838;BME280;11081;45.946;6.140;2023-05-10T03:59:59;95073.38;;;12.65;100.00
21838;BME280;11081;45.946;6.140;2023-05-10T04:02:27;95075.38;;;12.74;100.00
21838;BME280;11081;45.946;6.140;2023-05-10T04:04:56;95077.34;;;12.67;100.00
21838;BME280;11081;45.946;6.140;2023-05-10T04:07:24;95078.00;;;12.74;100.00
21838;BME280;11081;45.946;6.140;2023-05-10T04:09:52;95073.88;;;12.78;100.00
21838;BME280;11081;45.946;6.140;2023-05-10T04:12:23;95074.19;;;12.82;100.00
21838;BME280;11081;45.946;6.140;2023-05-10T04:14:51;95071.97;;;12.91;100.00
21838;BME280;11081;45.946;6.140;2023-05-10T04:17:18;95076.75;;;12.94;100.00
21838;BME280;11081;45.946;6.140;2023-05-10T04:19:46;95075.97;;;12.93;100.00
21838;BME280;11081;45.946;6.140;2023-05-10T04:22:14;95076.56;;;12.83;100.00
21838;BME280;11081;45.946;6.140;2023-05-10T04:24:42;95073.59;;;12.92;100.00
21838;BME280;11081;45.946;6.140;2023-05-10T04:27:10;95078.81;;;12.92;99.96
21838;BME280;11081;45.946;6.140;2023-05-10T04:29:40;95077.69;;;12.88;100.00
21838;BME280;11081;45.946;6.140;2023-05-10T04:32:08;95084.06;;;12.92;100.00
21838;BME280;11081;45.946;6.140;2023-05-10T04:34:36;95076.28;;;12.97;99.69
21838;BME280;11081;45.946;6.140;2023-05-10T04:37:04;95084.22;;;13.02;99.74
21838;BME280;11081;45.946;6.140;2023-05-10T04:39:34;95082.63;;;13.01;99.95
21838;BME280;11081;45.946;6.140;2023-05-10T04:42:02;95081.13;;;13.05;100.00
21838;BME280;11081;45.946;6.140;2023-05-10T04:44:32;95085.81;;;13.03;100.00
21838;BME280;11081;45.946;6.140;2023-05-10T04:47:01;95083.88;;;12.81;100.00
21838;BME280;11081;45.946;6.140;2023-05-10T04:49:29;95085.63;;;12.76;100.00
21838;BME280;11081;45.946;6.140;2023-05-10T04:51:57;95085.31;;;12.72;100.00
21838;BME280;11081;45.946;6.140;2023-05-10T04:54:26;95077.84;;;12.81;100.00
21838;BME280;11081;45.946;6.140;2023-05-10T04:56:54;95082.94;;;12.88;99.82
21838;BME280;11081;45.946;6.140;2023-05-10T04:59:22;95089.44;;;12.85;99.67
21838;BME280;11081;45.946;6.140;2023-05-10T05:01:50;95087.06;;;12.83;99.34
21838;BME280;11081;45.946;6.140;2023-05-10T05:04:19;95084.84;;;12.75;98.98
21838;BME280;11081;45.946;6.140;2023-05-10T05:06:47;95090.06;;;12.75;100.00
21838;BME280;11081;45.946;6.140;2023-05-10T05:09:18;95096.09;;;12.76;99.69
21838;BME280;11081;45.946;6.140;2023-05-10T05:11:46;95094.34;;;12.81;99.02
21838;BME280;11081;45.946;6.140;2023-05-10T05:14:14;95091.44;;;12.95;99.13
21838;BME280;11081;45.946;6.140;2023-05-10T05:16:42;95104.06;;;12.98;99.19
21838;BME280;11081;45.946;6.140;2023-05-10T05:19:10;95091.34;;;12.90;96.85
21838;BME280;11081;45.946;6.140;2023-05-10T05:21:39;95105.47;;;12.89;96.26
21838;BME280;11081;45.946;6.140;2023-05-10T05:24:08;95102.44;;;12.80;94.22
21838;BME280;11081;45.946;6.140;2023-05-10T05:26:36;95103.06;;;12.70;93.31
21838;BME280;11081;45.946;6.140;2023-05-10T05:29:04;95106.69;;;12.69;91.78
21838;BME280;11081;45.946;6.140;2023-05-10T05:31:32;95107.50;;;12.70;90.75
21838;BME280;11081;45.946;6.140;2023-05-10T05:34:00;95110.81;;;12.65;91.20
21838;BME280;11081;45.946;6.140;2023-05-10T05:36:28;95113.19;;;12.67;91.74
21838;BME280;11081;45.946;6.140;2023-05-10T05:38:58;95113.25;;;12.55;89.79
21838;BME280;11081;45.946;6.140;2023-05-10T05:41:26;95117.41;;;12.39;91.15
21838;BME280;11081;45.946;6.140;2023-05-10T05:43:54;95115.19;;;12.48;92.09
21838;BME280;11081;45.946;6.140;2023-05-10T05:46:22;95113.25;;;12.55;90.54
21838;BME280;11081;45.946;6.140;2023-05-10T05:48:50;95119.41;;;12.49;89.58
21838;BME280;11081;45.946;6.140;2023-05-10T05:51:18;95120.00;;;12.51;89.00
21838;BME280;11081;45.946;6.140;2023-05-10T05:53:46;95123.19;;;12.53;87.90
21838;BME280;11081;45.946;6.140;2023-05-10T05:56:16;95123.44;;;12.40;87.70
21838;BME280;11081;45.946;6.140;2023-05-10T05:58:50;95127.72;;;12.46;88.72
21838;BME280;11081;45.946;6.140;2023-05-10T06:01:19;95122.88;;;12.66;89.08
21838;BME280;11081;45.946;6.140;2023-05-10T06:03:47;95127.84;;;12.79;88.43
21838;BME280;11081;45.946;6.140;2023-05-10T06:06:18;95130.63;;;12.90;88.50
21838;BME280;11081;45.946;6.140;2023-05-10T06:08:46;95130.75;;;12.95;88.13
21838;BME280;11081;45.946;6.140;2023-05-10T06:11:14;95133.91;;;12.97;89.21
21838;BME280;11081;45.946;6.140;2023-05-10T06:13:43;95134.25;;;13.00;89.73
21838;BME280;11081;45.946;6.140;2023-05-10T06:16:11;95134.09;;;13.07;89.56
21838;BME280;11081;45.946;6.140;2023-05-10T06:18:39;95136.34;;;13.15;89.71
21838;BME280;11081;45.946;6.140;2023-05-10T06:21:07;95130.44;;;13.08;90.54
21838;BME280;11081;45.946;6.140;2023-05-10T06:23:35;95144.56;;;13.07;91.58
21838;BME280;11081;45.946;6.140;2023-05-10T06:26:04;95135.66;;;13.08;91.74
21838;BME280;11081;45.946;6.140;2023-05-10T06:28:31;95138.84;;;13.10;92.44
21838;BME280;11081;45.946;6.140;2023-05-10T06:31:01;95144.09;;;13.10;91.81
21838;BME280;11081;45.946;6.140;2023-05-10T06:33:29;95142.59;;;13.14;92.89
21838;BME280;11081;45.946;6.140;2023-05-10T06:35:57;95144.31;;;13.20;92.15
21838;BME280;11081;45.946;6.140;2023-05-10T06:38:25;95147.81;;;13.26;91.59
21838;BME280;11081;45.946;6.140;2023-05-10T06:40:53;95147.56;;;13.27;91.69
21838;BME280;11081;45.946;6.140;2023-05-10T06:43:21;95152.88;;;13.32;90.60
21838;BME280;11081;45.946;6.140;2023-05-10T06:45:50;95142.50;;;13.37;90.66
21838;BME280;11081;45.946;6.140;2023-05-10T06:48:20;95153.63;;;13.45;90.99
21838;BME280;11081;45.946;6.140;2023-05-10T06:50:48;95154.34;;;13.57;89.91
21838;BME280;11081;45.946;6.140;2023-05-10T06:53:16;95153.06;;;13.59;89.08
21838;BME280;11081;45.946;6.140;2023-05-10T06:55:44;95165.47;;;13.64;89.85
21838;BME280;11081;45.946;6.140;2023-05-10T06:58:13;95157.41;;;13.70;89.24
21838;BME280;11081;45.946;6.140;2023-05-10T07:00:40;95163.56;;;13.76;89.42
21838;BME280;11081;45.946;6.140;2023-05-10T07:03:10;95163.88;;;13.63;89.62
21838;BME280;11081;45.946;6.140;2023-05-10T07:05:39;95164.59;;;13.41;90.95
21838;BME280;11081;45.946;6.140;2023-05-10T07:08:07;95157.50;;;13.25;90.97
21838;BME280;11081;45.946;6.140;2023-05-10T07:10:35;95162.25;;;13.28;89.54
21838;BME280;11081;45.946;6.140;2023-05-10T07:13:03;95159.88;;;13.27;88.41
21838;BME280;11081;45.946;6.140;2023-05-10T07:15:31;95158.53;;;13.41;88.30
21838;BME280;11081;45.946;6.140;2023-05-10T07:18:00;95165.13;;;13.27;88.52
21838;BME280;11081;45.946;6.140;2023-05-10T07:20:28;95163.38;;;13.32;87.53
21838;BME280;11081;45.946;6.140;2023-05-10T07:22:57;95164.66;;;13.47;87.59
21838;BME280;11081;45.946;6.140;2023-05-10T07:25:25;95174.09;;;13.48;83.44
21838;BME280;11081;45.946;6.140;2023-05-10T07:27:53;95168.78;;;13.42;81.50
21838;BME280;11081;45.946;6.140;2023-05-10T07:30:21;95175.47;;;13.33;81.94
21838;BME280;11081;45.946;6.140;2023-05-10T07:32:49;95175.63;;;13.43;81.84
21838;BME280;11081;45.946;6.140;2023-05-10T07:35:17;95167.03;;;13.31;81.09
21838;BME280;11081;45.946;6.140;2023-05-10T07:37:45;95172.75;;;13.45;83.17
21838;BME280;11081;45.946;6.140;2023-05-10T07:40:15;95168.16;;;13.69;83.68
21838;BME280;11081;45.946;6.140;2023-05-10T07:42:43;95165.69;;;13.79;83.57
21838;BME280;11081;45.946;6.140;2023-05-10T07:45:11;95168.88;;;13.81;84.38
21838;BME280;11081;45.946;6.140;2023-05-10T07:47:39;95176.75;;;13.81;85.65
21838;BME280;11081;45.946;6.140;2023-05-10T07:50:07;95166.88;;;13.88;85.91
21838;BME280;11081;45.946;6.140;2023-05-10T07:52:36;95164.78;;;13.90;85.54
21838;BME280;11081;45.946;6.140;2023-05-10T07:55:04;95177.38;;;13.88;86.41
21838;BME280;11081;45.946;6.140;2023-05-10T07:57:35;95173.78;;;13.94;85.66
21838;BME280;11081;45.946;6.140;2023-05-10T08:00:03;95175.44;;;14.00;85.31
21838;BME280;11081;45.946;6.140;2023-05-10T08:02:38;95165.44;;;13.97;85.80
21838;BME280;11081;45.946;6.140;2023-05-10T08:05:07;95169.41;;;14.00;84.73
21838;BME280;11081;45.946;6.140;2023-05-10T08:07:35;95171.16;;;13.94;84.58
21838;BME280;11081;45.946;6.140;2023-05-10T08:10:04;95168.94;;;13.86;83.47
21838;BME280;11081;45.946;6.140;2023-05-10T08:12:32;95166.38;;;13.91;84.35
21838;BME280;11081;45.946;6.140;2023-05-10T08:15:01;95178.00;;;13.95;83.53
21838;BME280;11081;45.946;6.140;2023-05-10T08:17:30;95177.19;;;13.95;83.83
21838;BME280;11081;45.946;6.140;2023-05-10T08:19:57;95176.75;;;13.81;82.36
21838;BME280;11081;45.946;6.140;2023-05-10T08:22:25;95167.69;;;13.38;82.11
21838;BME280;11081;45.946;6.140;2023-05-10T08:24:54;95168.44;;;13.22;83.20
21838;BME280;11081;45.946;6.140;2023-05-10T08:27:21;95171.22;;;13.32;83.17
21838;BME280;11081;45.946;6.140;2023-05-10T08:29:49;95166.41;;;13.41;82.80
21838;BME280;11081;45.946;6.140;2023-05-10T08:32:19;95175.81;;;13.54;83.61
21838;BME280;11081;45.946;6.140;2023-05-10T08:34:47;95175.31;;;13.57;80.82
21838;BME280;11081;45.946;6.140;2023-05-10T08:37:15;95178.03;;;13.62;79.33
21838;BME280;11081;45.946;6.140;2023-05-10T08:39:43;95167.03;;;13.65;79.92
21838;BME280;11081;45.946;6.140;2023-05-10T08:42:13;95171.66;;;13.75;80.38
21838;BME280;11081;45.946;6.140;2023-05-10T08:44:44;95170.22;;;13.84;80.37
21838;BME280;11081;45.946;6.140;2023-05-10T08:47:16;95181.56;;;13.72;79.10
21838;BME280;11081;45.946;6.140;2023-05-10T08:49:47;95180.34;;;13.75;81.32
21838;BME280;11081;45.946;6.140;2023-05-10T08:52:17;95185.66;;;13.80;80.48
21838;BME280;11081;45.946;6.140;2023-05-10T08:54:47;95185.16;;;13.83;80.34
21838;BME280;11081;45.946;6.140;2023-05-10T08:57:15;95187.25;;;13.81;77.37
21838;BME280;11081;45.946;6.140;2023-05-10T08:59:43;95188.97;;;13.92;79.00
21838;BME280;11081;45.946;6.140;2023-05-10T09:02:11;95191.31;;;14.11;79.32
21838;BME280;11081;45.946;6.140;2023-05-10T09:04:44;95179.75;;;14.45;78.88
21838;BME280;11081;45.946;6.140;2023-05-10T09:07:14;95168.56;;;14.77;77.59
21838;BME280;11081;45.946;6.140;2023-05-10T09:09:42;95175.69;;;15.03;77.86
21838;BME280;11081;45.946;6.140;2023-05-10T09:12:11;95185.25;;;15.14;75.75
21838;BME280;11081;45.946;6.140;2023-05-10T09:14:43;95177.03;;;15.06;74.59
21838;BME280;11081;45.946;6.140;2023-05-10T09:17:12;95178.41;;;14.86;75.75
21838;BME280;11081;45.946;6.140;2023-05-10T09:19:40;95178.38;;;14.59;73.75
21838;BME280;11081;45.946;6.140;2023-05-10T09:22:09;95186.34;;;14.31;74.33
21838;BME280;11081;45.946;6.140;2023-05-10T09:24:39;95186.16;;;14.16;75.95
21838;BME280;11081;45.946;6.140;2023-05-10T09:27:11;95194.16;;;13.87;76.27
21838;BME280;11081;45.946;6.140;2023-05-10T09:29:41;95201.88;;;13.77;76.25
21838;BME280;11081;45.946;6.140;2023-05-10T09:32:09;95195.50;;;13.73;75.64
21838;BME280;11081;45.946;6.140;2023-05-10T09:34:39;95204.88;;;13.69;74.93
21838;BME280;11081;45.946;6.140;2023-05-10T09:37:08;95202.94;;;13.48;75.37
21838;BME280;11081;45.946;6.140;2023-05-10T09:39:38;95205.97;;;13.39;74.60
21838;BME280;11081;45.946;6.140;2023-05-10T09:42:08;95206.81;;;13.28;76.39
21838;BME280;11081;45.946;6.140;2023-05-10T09:44:37;95205.78;;;13.29;75.26
21838;BME280;11081;45.946;6.140;2023-05-10T09:47:05;95196.81;;;13.25;76.65
21838;BME280;11081;45.946;6.140;2023-05-10T09:49:34;95194.38;;;13.35;74.34
21838;BME280;11081;45.946;6.140;2023-05-10T09:52:03;95201.84;;;13.43;73.93
21838;BME280;11081;45.946;6.140;2023-05-10T09:54:33;95203.44;;;13.45;72.64
21838;BME280;11081;45.946;6.140;2023-05-10T09:57:03;95206.81;;;13.28;72.38
21838;BME280;11081;45.946;6.140;2023-05-10T09:59:33;95202.22;;;13.07;71.37
21838;BME280;11081;45.946;6.140;2023-05-10T10:02:02;95197.91;;;13.01;71.14
21838;BME280;11081;45.946;6.140;2023-05-10T10:04:30;95205.88;;;13.06;71.33
21838;BME280;11081;45.946;6.140;2023-05-10T10:06:59;95210.53;;;13.04;71.17
21838;BME280;11081;45.946;6.140;2023-05-10T10:09:28;95208.19;;;12.91;70.76
21838;BME280;11081;45.946;6.140;2023-05-10T10:11:56;95207.84;;;12.99;70.69
21838;BME280;11081;45.946;6.140;2023-05-10T10:14:27;95210.59;;;12.92;71.53
21838;BME280;11081;45.946;6.140;2023-05-10T10:16:55;95210.47;;;12.99;72.73
21838;BME280;11081;45.946;6.140;2023-05-10T10:19:34;95207.38;;;13.30;73.13
21838;BME280;11081;45.946;6.140;2023-05-10T10:22:03;95209.31;;;13.52;72.36
21838;BME280;11081;45.946;6.140;2023-05-10T10:24:32;95215.53;;;13.79;71.94
21838;BME280;11081;45.946;6.140;2023-05-10T10:27:16;95214.88;;;14.06;69.19
21838;BME280;11081;45.946;6.140;2023-05-10T10:30:02;95204.69;;;14.26;71.39
21838;BME280;11081;45.946;6.140;2023-05-10T10:32:47;95211.03;;;14.30;74.83
21838;BME280;11081;45.946;6.140;2023-05-10T10:35:23;95212.78;;;14.24;76.42
21838;BME280;11081;45.946;6.140;2023-05-10T10:37:51;95210.91;;;14.20;77.12
21838;BME280;11081;45.946;6.140;2023-05-10T10:40:29;95206.25;;;14.27;79.07
21838;BME280;11081;45.946;6.140;2023-05-10T10:43:21;95203.63;;;14.27;77.54
21838;BME280;11081;45.946;6.140;2023-05-10T10:46:12;95206.75;;;14.24;78.46
21838;BME280;11081;45.946;6.140;2023-05-10T10:48:43;95208.34;;;14.25;77.78
21838;BME280;11081;45.946;6.140;2023-05-10T10:51:14;95206.13;;;14.17;76.47
21838;BME280;11081;45.946;6.140;2023-05-10T10:53:43;95198.16;;;14.12;76.43
21838;BME280;11081;45.946;6.140;2023-05-10T10:56:12;95212.31;;;14.11;75.82
21838;BME280;11081;45.946;6.140;2023-05-10T10:58:49;95198.97;;;14.12;75.74
21838;BME280;11081;45.946;6.140;2023-05-10T11:01:19;95203.09;;;14.25;75.53
21838;BME280;11081;45.946;6.140;2023-05-10T11:04:18;95196.84;;;14.31;75.07
21838;BME280;11081;45.946;6.140;2023-05-10T11:06:47;95195.41;;;14.40;75.41
21838;BME280;11081;45.946;6.140;2023-05-10T11:09:15;95180.53;;;14.68;75.00
21838;BME280;11081;45.946;6.140;2023-05-10T11:11:51;95195.06;;;14.97;73.00
21838;BME280;11081;45.946;6.140;2023-05-10T11:14:22;95202.78;;;14.82;74.56
21838;BME280;11081;45.946;6.140;2023-05-10T11:16:51;95208.97;;;14.71;73.32
21838;BME280;11081;45.946;6.140;2023-05-10T11:19:19;95197.00;;;14.58;72.80
21838;BME280;11081;45.946;6.140;2023-05-10T11:21:50;95202.41;;;14.51;73.25
21838;BME280;11081;45.946;6.140;2023-05-10T11:24:20;95207.06;;;14.44;73.00
21838;BME280;11081;45.946;6.140;2023-05-10T11:26:49;95207.44;;;13.97;73.88
21838;BME280;11081;45.946;6.140;2023-05-10T11:29:18;95210.28;;;13.79;72.05
21838;BME280;11081;45.946;6.140;2023-05-10T11:31:47;95206.31;;;13.60;71.05
21838;BME280;11081;45.946;6.140;2023-05-10T11:34:24;95211.25;;;13.56;67.65
21838;BME280;11081;45.946;6.140;2023-05-10T11:36:53;95207.41;;;13.64;70.79
21838;BME280;11081;45.946;6.140;2023-05-10T11:39:25;95211.09;;;13.80;68.85
21838;BME280;11081;45.946;6.140;2023-05-10T11:41:54;95203.75;;;13.98;69.17
21838;BME280;11081;45.946;6.140;2023-05-10T11:44:22;95198.31;;;14.22;68.75
21838;BME280;11081;45.946;6.140;2023-05-10T11:46:51;95195.22;;;14.63;67.50
21838;BME280;11081;45.946;6.140;2023-05-10T11:49:20;95191.59;;;14.91;65.66
21838;BME280;11081;45.946;6.140;2023-05-10T11:51:52;95203.50;;;14.99;66.39
21838;BME280;11081;45.946;6.140;2023-05-10T11:54:20;95193.47;;;14.96;65.68
21838;BME280;11081;45.946;6.140;2023-05-10T11:56:49;95196.41;;;14.78;65.30
21838;BME280;11081;45.946;6.140;2023-05-10T11:59:17;95195.00;;;14.92;64.98
21838;BME280;11081;45.946;6.140;2023-05-10T12:01:45;95197.56;;;15.09;64.79
21838;BME280;11081;45.946;6.140;2023-05-10T12:04:13;95203.16;;;15.17;65.32
21838;BME280;11081;45.946;6.140;2023-05-10T12:06:42;95201.16;;;15.24;65.56
21838;BME280;11081;45.946;6.140;2023-05-10T12:09:12;95200.50;;;14.90;64.32
21838;BME280;11081;45.946;6.140;2023-05-10T12:11:40;95197.97;;;14.35;66.40
21838;BME280;11081;45.946;6.140;2023-05-10T12:14:10;95205.28;;;14.33;67.41
21838;BME280;11081;45.946;6.140;2023-05-10T12:16:38;95209.94;;;14.26;66.25
21838;BME280;11081;45.946;6.140;2023-05-10T12:19:06;95206.53;;;14.09;66.45
21838;BME280;11081;45.946;6.140;2023-05-10T12:21:34;95200.72;;;13.90;65.67
21838;BME280;11081;45.946;6.140;2023-05-10T12:24:03;95203.47;;;13.78;66.25
21838;BME280;11081;45.946;6.140;2023-05-10T12:26:35;95199.81;;;13.79;64.53
21838;BME280;11081;45.946;6.140;2023-05-10T12:29:23;95209.97;;;13.76;65.84
21838;BME280;11081;45.946;6.140;2023-05-10T12:31:56;95208.72;;;13.78;65.57
21838;BME280;11081;45.946;6.140;2023-05-10T12:34:25;95211.22;;;13.90;66.45
21838;BME280;11081;45.946;6.140;2023-05-10T12:36:54;95210.34;;;14.18;67.88
21838;BME280;11081;45.946;6.140;2023-05-10T12:39:22;95212.06;;;14.29;66.19
21838;BME280;11081;45.946;6.140;2023-05-10T12:41:52;95210.22;;;14.46;65.13
21838;BME280;11081;45.946;6.140;2023-05-10T12:44:20;95204.13;;;14.62;65.10
21838;BME280;11081;45.946;6.140;2023-05-10T12:46:48;95203.66;;;14.66;65.65
21838;BME280;11081;45.946;6.140;2023-05-10T12:49:15;95203.03;;;14.58;65.52
21838;BME280;11081;45.946;6.140;2023-05-10T12:51:45;95206.69;;;14.57;65.85
21838;BME280;11081;45.946;6.140;2023-05-10T12:54:13;95205.59;;;14.53;65.75
21838;BME280;11081;45.946;6.140;2023-05-10T12:56:41;95203.09;;;14.25;65.95
21838;BME280;11081;45.946;6.140;2023-05-10T12:59:10;95208.53;;;14.01;65.17
21838;BME280;11081;45.946;6.140;2023-05-10T13:01:38;95204.25;;;13.79;66.06
21838;BME280;11081;45.946;6.140;2023-05-10T13:04:06;95203.59;;;13.71;66.52
21838;BME280;11081;45.946;6.140;2023-05-10T13:06:34;95204.56;;;13.82;66.05
21838;BME280;11081;45.946;6.140;2023-05-10T13:09:02;95203.94;;;13.75;65.55
21838;BME280;11081;45.946;6.140;2023-05-10T13:11:30;95202.50;;;13.84;66.15
21838;BME280;11081;45.946;6.140;2023-05-10T13:13:58;95212.03;;;14.07;65.30
21838;BME280;11081;45.946;6.140;2023-05-10T13:16:28;95206.63;;;13.80;66.03
21838;BME280;11081;45.946;6.140;2023-05-10T13:18:56;95204.94;;;13.74;66.19